createdAt,value
2017-10-28T00:00:23.800Z,1002.88
2017-10-28T00:01:34.217Z,1002.91
2017-10-28T00:02:44.313Z,1002.88
2017-10-28T00:03:54.735Z,1002.91
2017-10-28T00:05:04.824Z,1002.85
2017-10-28T00:06:15.215Z,1002.98
2017-10-28T00:07:25.621Z,1002.93
2017-10-28T00:08:35.362Z,1002.98
2017-10-28T00:09:45.118Z,1003.04
2017-10-28T00:10:55.204Z,1002.96
2017-10-28T00:12:05.603Z,1002.93
2017-10-28T00:13:15.338Z,1002.84
2017-10-28T00:14:25.772Z,1002.98
2017-10-28T00:15:36.164Z,1002.89
2017-10-28T00:16:46.562Z,1002.88
2017-10-28T00:17:56.967Z,1002.93
2017-10-28T00:19:07.359Z,1002.91
2017-10-28T00:20:17.513Z,1002.91
2017-10-28T00:21:27.903Z,1002.89
2017-10-28T00:22:38.310Z,1002.96
2017-10-28T00:23:48.721Z,1002.92
2017-10-28T00:24:58.840Z,1002.94
2017-10-28T00:26:09.277Z,1002.92
2017-10-28T00:27:19.682Z,1002.83
2017-10-28T00:28:29.753Z,1002.91
2017-10-28T00:29:39.829Z,1002.93
2017-10-28T00:30:50.236Z,1002.94
2017-10-28T00:32:00.693Z,1002.88
2017-10-28T00:33:11.109Z,1002.89
2017-10-28T00:34:21.497Z,1002.86
2017-10-28T00:35:31.894Z,1002.86
2017-10-28T00:36:41.956Z,1002.85
2017-10-28T00:37:52.347Z,1002.82
2017-10-28T00:39:02.429Z,1002.85
2017-10-28T00:40:12.518Z,1002.79
2017-10-28T00:41:22.922Z,1002.75
2017-10-28T00:42:32.979Z,1002.83
2017-10-28T00:43:43.420Z,1002.87
2017-10-28T00:44:53.521Z,1002.8
2017-10-28T00:46:03.916Z,1002.84
2017-10-28T00:47:13.997Z,1002.87
2017-10-28T00:48:24.394Z,1002.93
2017-10-28T00:49:34.514Z,1002.86
2017-10-28T00:50:44.964Z,1002.88
2017-10-28T00:51:55.363Z,1002.79
2017-10-28T00:53:05.760Z,1002.86
2017-10-28T00:54:16.153Z,1002.82
2017-10-28T00:55:26.564Z,1002.78
2017-10-28T00:56:36.972Z,1002.75
2017-10-28T00:57:47.372Z,1002.79
2017-10-28T00:58:57.774Z,1002.79
2017-10-28T01:00:08.177Z,1002.81
2017-10-28T01:01:18.634Z,1002.76
2017-10-28T01:02:29.038Z,1002.73
2017-10-28T01:03:39.109Z,1002.77
2017-10-28T01:04:49.507Z,1002.71
2017-10-28T01:05:59.907Z,1002.75
2017-10-28T01:07:10.015Z,1002.7
2017-10-28T01:08:20.089Z,1002.69
2017-10-28T01:09:30.150Z,1002.68
2017-10-28T01:10:40.227Z,1002.75
2017-10-28T01:11:50.651Z,1002.73
2017-10-28T01:13:01.054Z,1002.73
2017-10-28T01:14:11.467Z,1002.72
2017-10-28T01:15:21.881Z,1002.73
2017-10-28T01:16:31.979Z,1002.69
2017-10-28T01:17:42.377Z,1002.69
2017-10-28T01:18:52.114Z,1002.82
2017-10-28T01:20:02.185Z,1002.69
2017-10-28T01:21:12.587Z,1002.62
2017-10-28T01:22:22.661Z,1002.62
2017-10-28T01:23:33.057Z,1002.59
2017-10-28T01:24:43.513Z,1002.58
2017-10-28T01:25:53.909Z,1002.56
2017-10-28T01:27:03.981Z,1002.52
2017-10-28T01:28:14.380Z,1002.59
2017-10-28T01:29:24.787Z,1002.47
2017-10-28T01:30:35.202Z,1002.57
2017-10-28T01:31:45.263Z,1002.49
2017-10-28T01:32:55.669Z,1002.41
2017-10-28T01:34:05.739Z,1002.51
2017-10-28T01:35:16.138Z,1002.39
2017-10-28T01:36:26.548Z,1002.47
2017-10-28T01:37:36.288Z,1002.43
2017-10-28T01:38:46.683Z,1002.46
2017-10-28T01:39:56.737Z,1002.42
2017-10-28T01:41:07.132Z,1002.39
2017-10-28T01:42:17.548Z,1002.45
2017-10-28T01:43:27.984Z,1002.39
2017-10-28T01:44:38.382Z,1002.39
2017-10-28T01:45:48.450Z,1002.44
2017-10-28T01:46:58.849Z,1002.36
2017-10-28T01:48:09.403Z,1002.37
2017-10-28T01:49:19.799Z,1002.35
2017-10-28T01:50:30.207Z,1002.28
2017-10-28T01:51:40.289Z,1002.28
2017-10-28T01:52:50.354Z,1002.35
2017-10-28T01:54:00.767Z,1002.22
2017-10-28T01:55:11.165Z,1002.24
2017-10-28T01:56:21.581Z,1002.2
2017-10-28T01:57:31.643Z,1002.26
2017-10-28T01:58:42.034Z,1002.26
2017-10-28T01:59:52.416Z,1002.2
2017-10-28T02:01:02.823Z,1002.16
2017-10-28T02:02:13.247Z,1002.12
2017-10-28T02:03:23.318Z,1002.08
2017-10-28T02:04:33.703Z,1002.13
2017-10-28T02:05:43.108Z,1002.18
2017-10-28T02:06:53.508Z,1002.13
2017-10-28T02:08:03.602Z,1002.21
2017-10-28T02:09:13.332Z,1002.14
2017-10-28T02:10:24.432Z,1002.19
2017-10-28T02:11:34.508Z,1002.13
2017-10-28T02:12:44.569Z,1002.15
2017-10-28T02:13:54.979Z,1002.09
2017-10-28T02:15:05.054Z,1002.07
2017-10-28T02:16:15.440Z,1002.13
2017-10-28T02:17:25.899Z,1002.13
2017-10-28T02:18:36.345Z,1002.01
2017-10-28T02:19:46.760Z,1002.04
2017-10-28T02:20:56.500Z,1002
2017-10-28T02:22:06.914Z,1002.07
2017-10-28T02:23:17.377Z,1002.01
2017-10-28T02:24:27.767Z,1001.99
2017-10-28T02:25:38.166Z,1001.98
2017-10-28T02:26:48.563Z,1001.95
2017-10-28T02:27:58.962Z,1002.01
2017-10-28T02:29:09.340Z,1002
2017-10-28T02:30:19.878Z,1001.95
2017-10-28T02:31:29.955Z,1002
2017-10-28T02:32:40.359Z,1001.96
2017-10-28T02:33:50.782Z,1001.96
2017-10-28T02:35:01.230Z,1001.96
2017-10-28T02:36:11.631Z,1001.95
2017-10-28T02:37:22.025Z,1001.93
2017-10-28T02:38:32.427Z,1001.94
2017-10-28T02:39:42.837Z,1001.92
2017-10-28T02:40:53.255Z,1001.91
2017-10-28T02:42:03.662Z,1001.88
2017-10-28T02:43:14.062Z,1001.85
2017-10-28T02:44:24.448Z,1001.86
2017-10-28T02:45:34.841Z,1001.78
2017-10-28T02:46:45.235Z,1001.83
2017-10-28T02:47:55.659Z,1001.8
2017-10-28T02:49:06.075Z,1001.82
2017-10-28T02:50:16.146Z,1001.76
2017-10-28T02:51:26.209Z,1001.87
2017-10-28T02:52:36.265Z,1001.81
2017-10-28T02:53:46.647Z,1001.8
2017-10-28T02:54:56.718Z,1001.77
2017-10-28T02:56:07.111Z,1001.81
2017-10-28T02:57:17.530Z,1001.84
2017-10-28T02:58:27.624Z,1001.84
2017-10-28T02:59:38.024Z,1001.83
2017-10-28T03:00:48.432Z,1001.84
2017-10-28T03:01:58.505Z,1001.82
2017-10-28T03:33:18.016Z,1001.74
2017-10-28T03:34:28.413Z,1001.71
2017-10-28T03:35:38.805Z,1001.65
2017-10-28T03:36:49.190Z,1001.69
2017-10-28T03:37:59.261Z,1001.78
2017-10-28T03:39:09.370Z,1001.67
2017-10-28T03:40:19.759Z,1001.72
2017-10-28T03:41:30.163Z,1001.68
2017-10-28T03:42:40.564Z,1001.68
2017-10-28T03:43:50.967Z,1001.7
2017-10-28T03:45:01.408Z,1001.74
2017-10-28T03:46:11.817Z,1001.67
2017-10-28T03:47:22.212Z,1001.59
2017-10-28T03:48:32.595Z,1001.58
2017-10-28T03:49:42.994Z,1001.59
2017-10-28T03:50:53.383Z,1001.57
2017-10-28T03:52:03.784Z,1001.57
2017-10-28T03:53:14.181Z,1001.55
2017-10-28T03:54:24.587Z,1001.59
2017-10-28T03:55:34.326Z,1001.55
2017-10-28T03:56:44.763Z,1001.47
2017-10-28T03:57:55.187Z,1001.5
2017-10-28T03:59:05.587Z,1001.49
2017-10-28T04:00:15.660Z,1001.49
2017-10-28T04:01:26.050Z,1001.44
2017-10-28T04:02:36.174Z,1001.45
2017-10-28T04:03:45.573Z,1001.38
2017-10-28T04:04:55.633Z,1001.4
2017-10-28T04:06:05.697Z,1001.4
2017-10-28T04:07:15.762Z,1001.36
2017-10-28T04:08:26.181Z,1001.33
2017-10-28T04:09:36.586Z,1001.32
2017-10-28T04:10:46.986Z,1001.29
2017-10-28T04:11:57.060Z,1001.27
2017-10-28T04:13:07.130Z,1001.3
2017-10-28T04:14:17.586Z,1001.28
2017-10-28T04:15:27.665Z,1001.28
2017-10-28T04:16:37.732Z,1001.25
2017-10-28T04:17:48.134Z,1001.2
2017-10-28T04:18:57.241Z,1001.22
2017-10-28T04:20:07.739Z,1001.26
2017-10-28T04:21:18.137Z,1001.21
2017-10-28T04:22:28.540Z,1001.23
2017-10-28T04:23:38.623Z,1001.22
2017-10-28T04:24:49.018Z,1001.27
2017-10-28T04:25:59.454Z,1001.23
2017-10-28T04:27:09.858Z,1001.27
2017-10-28T04:28:20.241Z,1001.25
2017-10-28T04:29:30.652Z,1001.25
2017-10-28T04:30:41.040Z,1001.27
2017-10-28T04:31:51.463Z,1001.23
2017-10-28T04:33:01.861Z,1001.26
2017-10-28T04:34:12.254Z,1001.22
2017-10-28T04:35:22.645Z,1001.19
2017-10-28T04:36:32.720Z,1001.18
2017-10-28T04:37:43.162Z,1001.15
2017-10-28T04:38:53.608Z,1001.13
2017-10-28T04:40:04.007Z,1001.11
2017-10-28T04:41:13.747Z,1001.06
2017-10-28T04:42:24.142Z,1001.05
2017-10-28T04:43:34.222Z,1001.07
2017-10-28T04:44:43.954Z,1000.99
2017-10-28T04:45:54.035Z,1001.02
2017-10-28T04:47:04.425Z,1000.95
2017-10-28T04:48:14.509Z,1001
2017-10-28T04:49:24.915Z,1000.94
2017-10-28T04:50:35.308Z,1000.89
2017-10-28T04:51:45.379Z,1000.91
2017-10-28T04:52:55.440Z,1000.89
2017-10-28T04:54:05.513Z,1000.86
2017-10-28T04:55:15.911Z,1000.88
2017-10-28T04:56:25.977Z,1000.89
2017-10-28T04:57:36.376Z,1000.86
2017-10-28T04:58:46.440Z,1000.84
2017-10-28T04:59:56.518Z,1000.86
2017-10-28T05:01:06.975Z,1000.85
2017-10-28T05:02:17.377Z,1000.83
2017-10-28T05:03:27.780Z,1000.86
2017-10-28T05:04:38.184Z,1000.79
2017-10-28T05:05:48.610Z,1000.79
2017-10-28T05:06:59.010Z,1000.79
2017-10-28T05:08:09.081Z,1000.73
2017-10-28T05:09:19.468Z,1000.71
2017-10-28T05:10:29.534Z,1000.71
2017-10-28T05:11:39.912Z,1000.68
2017-10-28T05:12:50.333Z,1000.66
2017-10-28T05:14:00.732Z,1000.69
2017-10-28T05:15:11.129Z,1000.72
2017-10-28T05:16:21.561Z,1000.65
2017-10-28T05:17:31.618Z,1000.69
2017-10-28T05:18:42.016Z,1000.71
2017-10-28T05:19:52.428Z,1000.69
2017-10-28T05:21:02.857Z,1000.66
2017-10-28T05:22:13.250Z,1000.67
2017-10-28T05:23:23.658Z,1000.66
2017-10-28T05:24:34.078Z,1000.61
2017-10-28T05:25:44.476Z,1000.62
2017-10-28T05:26:54.550Z,1000.57
2017-10-28T05:28:04.972Z,1000.61
2017-10-28T05:29:15.356Z,1000.64
2017-10-28T05:30:25.795Z,1000.58
2017-10-28T05:31:36.200Z,1000.67
2017-10-28T05:32:46.606Z,1000.58
2017-10-28T05:33:57.003Z,1000.55
2017-10-28T05:35:07.420Z,1000.57
2017-10-28T05:36:17.830Z,1000.61
2017-10-28T05:37:27.890Z,1000.62
2017-10-28T05:38:38.305Z,1000.54
2017-10-28T05:39:48.717Z,1000.72
2017-10-28T05:40:58.455Z,1000.63
2017-10-28T05:42:08.899Z,1000.61
2017-10-28T05:43:19.288Z,1000.6
2017-10-28T05:44:29.699Z,1000.57
2017-10-28T05:45:39.765Z,1000.55
2017-10-28T05:46:50.245Z,1000.57
2017-10-28T05:48:00.366Z,1000.62
2017-10-28T05:49:10.775Z,1000.59
2017-10-28T05:50:21.172Z,1000.59
2017-10-28T05:51:31.568Z,1000.62
2017-10-28T05:52:41.961Z,1000.58
2017-10-28T05:53:52.421Z,1000.6
2017-10-28T05:55:02.498Z,1000.63
2017-10-28T05:56:12.923Z,1000.66
2017-10-28T05:57:23.367Z,1000.68
2017-10-28T05:58:33.759Z,1000.73
2017-10-28T05:59:43.887Z,1000.71
2017-10-28T06:00:53.955Z,1000.72
2017-10-28T06:02:04.374Z,1000.75
2017-10-28T06:03:14.771Z,1000.72
2017-10-28T06:04:25.173Z,1000.72
2017-10-28T06:05:35.239Z,1000.76
2017-10-28T06:06:44.986Z,1000.77
2017-10-28T06:07:55.388Z,1000.74
2017-10-28T06:09:05.809Z,1000.77
2017-10-28T06:10:15.870Z,1000.74
2017-10-28T06:11:26.263Z,1000.79
2017-10-28T06:12:36.670Z,1000.76
2017-10-28T06:13:47.095Z,1000.73
2017-10-28T06:14:57.519Z,1000.64
2017-10-28T06:16:07.601Z,1000.73
2017-10-28T06:17:18.064Z,1000.72
2017-10-28T06:18:28.466Z,1000.73
2017-10-28T06:19:38.884Z,1000.71
2017-10-28T06:20:48.637Z,1000.71
2017-10-28T06:21:58.715Z,1000.72
2017-10-28T06:23:09.108Z,1000.76
2017-10-28T06:24:19.180Z,1000.7
2017-10-28T06:25:29.598Z,1000.76
2017-10-28T06:26:39.670Z,1000.8
2017-10-28T06:27:49.724Z,1000.74
2017-10-28T06:28:59.795Z,1000.74
2017-10-28T06:30:10.204Z,1000.76
2017-10-28T06:31:20.292Z,1000.74
2017-10-28T06:32:30.706Z,1000.7
2017-10-28T06:33:41.103Z,1000.74
2017-10-28T06:34:51.491Z,1000.71
2017-10-28T06:36:01.890Z,1000.75
2017-10-28T06:37:12.290Z,1000.75
2017-10-28T06:38:22.389Z,1000.69
2017-10-28T06:39:32.477Z,1000.72
2017-10-28T06:40:42.975Z,1000.73
2017-10-28T06:41:53.037Z,1000.68
2017-10-28T06:43:03.453Z,1000.69
2017-10-28T06:44:13.529Z,1000.71
2017-10-28T06:45:23.608Z,1000.68
2017-10-28T06:46:33.723Z,1000.64
2017-10-28T06:47:44.132Z,1000.7
2017-10-28T06:48:54.209Z,1000.67
2017-10-28T06:50:03.996Z,1000.67
2017-10-28T06:51:14.411Z,1000.59
2017-10-28T06:52:24.852Z,1000.57
2017-10-28T06:53:34.941Z,1000.66
2017-10-28T06:54:45.351Z,1000.6
2017-10-28T06:55:55.770Z,1000.59
2017-10-28T06:57:06.160Z,1000.59
2017-10-28T06:58:16.223Z,1000.6
2017-10-28T06:59:27.435Z,1000.56
2017-10-28T07:00:37.842Z,1000.61
2017-10-28T07:01:48.269Z,1000.61
2017-10-28T07:02:58.683Z,1000.63
2017-10-28T07:04:08.753Z,1000.61
2017-10-28T07:05:19.156Z,1000.6
2017-10-28T07:06:29.577Z,1000.66
2017-10-28T07:07:39.661Z,1000.65
2017-10-28T07:08:49.728Z,1000.66
2017-10-28T07:09:59.819Z,1000.67
2017-10-28T07:11:10.218Z,1000.67
2017-10-28T07:12:20.661Z,1000.65
2017-10-28T07:13:31.078Z,1000.59
2017-10-28T07:14:41.479Z,1000.64
2017-10-28T07:15:51.226Z,1000.6
2017-10-28T07:17:01.303Z,1000.56
2017-10-28T07:18:11.748Z,1000.54
2017-10-28T07:19:21.834Z,1000.59
2017-10-28T07:20:32.247Z,1000.56
2017-10-28T07:21:42.929Z,1000.53
2017-10-28T07:22:53.646Z,1000.48
2017-10-28T07:24:05.362Z,1000.53
2017-10-28T07:25:15.757Z,1000.44
2017-10-28T07:26:26.168Z,1000.46
2017-10-28T07:27:36.578Z,1000.45
2017-10-28T07:28:46.318Z,1000.42
2017-10-28T07:29:56.727Z,1000.55
2017-10-28T07:31:06.812Z,1000.47
2017-10-28T07:32:16.883Z,1000.43
2017-10-28T07:33:27.342Z,1000.47
2017-10-28T07:34:37.425Z,1000.41
2017-10-28T07:35:46.833Z,1000.47
2017-10-28T07:36:57.238Z,1000.47
2017-10-28T07:38:07.321Z,1000.5
2017-10-28T07:39:17.385Z,1000.41
2017-10-28T07:40:27.804Z,1000.43
2017-10-28T07:41:38.214Z,1000.44
2017-10-28T07:42:48.614Z,1000.42
2017-10-28T07:43:59.024Z,1000.49
2017-10-28T07:45:09.484Z,1000.48
2017-10-28T07:46:19.569Z,1000.39
2017-10-28T07:47:29.981Z,1000.44
2017-10-28T07:48:40.420Z,1000.37
2017-10-28T07:49:50.513Z,1000.49
2017-10-28T07:51:00.982Z,1000.38
2017-10-28T07:52:11.436Z,1000.29
2017-10-28T07:53:21.858Z,1000.35
2017-10-28T07:54:32.270Z,1000.36
2017-10-28T07:55:42.671Z,1000.38
2017-10-28T07:56:53.110Z,1000.32
2017-10-28T07:58:03.514Z,1000.33
2017-10-28T07:59:13.906Z,1000.34
2017-10-28T08:00:24.307Z,1000.39
2017-10-28T08:01:34.735Z,1000.39
2017-10-28T08:02:45.207Z,1000.35
2017-10-28T08:03:54.626Z,1000.3
2017-10-28T08:05:04.715Z,1000.32
2017-10-28T08:06:15.156Z,1000.31
2017-10-28T08:07:25.239Z,1000.29
2017-10-28T08:08:35.639Z,1000.29
2017-10-28T08:09:46.055Z,1000.2
2017-10-28T08:10:56.459Z,1000.29
2017-10-28T08:12:06.542Z,1000.31
2017-10-28T08:13:16.950Z,1000.21
2017-10-28T08:14:27.377Z,1000.23
2017-10-28T08:15:37.444Z,1000.34
2017-10-28T08:16:48.380Z,1000.34
2017-10-28T08:17:58.795Z,1000.25
2017-10-28T08:19:09.220Z,1000.23
2017-10-28T08:20:19.693Z,1000.27
2017-10-28T08:21:29.445Z,1000.2
2017-10-28T08:22:39.891Z,1000.2
2017-10-28T08:23:50.233Z,1000.18
2017-10-28T08:25:00.646Z,1000.16
2017-10-28T08:26:10.399Z,1000.18
2017-10-28T08:27:20.802Z,1000.14
2017-10-28T08:28:31.214Z,1000.16
2017-10-28T08:29:41.621Z,1000.21
2017-10-28T08:30:52.041Z,1000.18
2017-10-28T08:32:02.506Z,1000.17
2017-10-28T08:33:12.622Z,1000.22
2017-10-28T08:34:23.030Z,1000.23
2017-10-28T08:35:32.786Z,1000.21
2017-10-28T08:36:42.880Z,1000.24
2017-10-28T08:37:53.288Z,1000.28
2017-10-28T08:39:03.716Z,1000.26
2017-10-28T08:40:14.123Z,1000.31
2017-10-28T08:41:24.205Z,1000.2
2017-10-28T08:42:34.596Z,1000.24
2017-10-28T08:43:45.007Z,1000.2
2017-10-28T08:44:55.422Z,1000.13
2017-10-28T08:46:05.832Z,1000.2
2017-10-28T08:47:15.590Z,1000.17
2017-10-28T08:48:26.009Z,1000.15
2017-10-28T08:49:36.453Z,1000.08
2017-10-28T08:50:46.863Z,1000.12
2017-10-28T08:51:56.936Z,1000.15
2017-10-28T08:53:07.356Z,1000.12
2017-10-28T08:54:17.790Z,1000.12
2017-10-28T08:55:28.243Z,1000.06
2017-10-28T08:56:38.683Z,1000.16
2017-10-28T08:57:49.110Z,1000.09
2017-10-28T08:58:59.512Z,1000.1
2017-10-28T09:00:09.600Z,1000.12
2017-10-28T09:01:19.726Z,1000.07
2017-10-28T09:02:30.154Z,1000.08
2017-10-28T09:03:40.577Z,1000.11
2017-10-28T09:04:50.979Z,1000.09
2017-10-28T09:06:01.051Z,1000.05
2017-10-28T09:07:11.178Z,999.95
2017-10-28T09:08:21.586Z,1000
2017-10-28T09:09:31.665Z,999.96
2017-10-28T09:10:42.072Z,999.93
2017-10-28T09:11:52.148Z,999.9
2017-10-28T09:13:02.548Z,999.96
2017-10-28T09:14:12.973Z,999.92
2017-10-28T09:15:23.386Z,999.93
2017-10-28T09:16:33.457Z,999.97
2017-10-28T09:17:43.523Z,999.93
2017-10-28T09:18:53.646Z,999.93
2017-10-28T09:20:04.051Z,999.96
2017-10-28T09:21:14.478Z,999.89
2017-10-28T09:22:25.744Z,999.89
2017-10-28T09:23:36.142Z,999.81
2017-10-28T09:24:46.591Z,999.81
2017-10-28T09:25:56.279Z,999.82
2017-10-28T09:27:06.395Z,999.78
2017-10-28T09:28:16.800Z,999.76
2017-10-28T09:29:26.581Z,999.77
2017-10-28T09:30:36.993Z,999.77
2017-10-28T09:31:47.416Z,999.81
2017-10-28T09:32:57.824Z,999.78
2017-10-28T09:34:08.231Z,999.81
2017-10-28T09:35:18.624Z,999.76
2017-10-28T09:36:29.026Z,999.71
2017-10-28T09:37:39.451Z,999.68
2017-10-28T09:38:49.529Z,999.63
2017-10-28T09:39:59.627Z,999.58
2017-10-28T09:41:10.024Z,999.55
2017-10-28T09:42:19.777Z,999.56
2017-10-28T09:43:29.843Z,999.54
2017-10-28T09:44:40.254Z,999.54
2017-10-28T09:45:50.884Z,999.49
2017-10-28T09:47:01.317Z,999.51
2017-10-28T09:48:11.389Z,999.55
2017-10-28T09:49:21.812Z,999.52
2017-10-28T09:50:31.912Z,999.5
2017-10-28T09:51:42.321Z,999.51
2017-10-28T09:52:52.742Z,999.46
2017-10-28T09:54:03.215Z,999.45
2017-10-28T09:55:13.287Z,999.35
2017-10-28T09:56:23.371Z,999.29
2017-10-28T09:57:33.110Z,999.22
2017-10-28T09:58:43.515Z,999.26
2017-10-28T09:59:54.006Z,999.26
2017-10-28T10:01:04.441Z,999.3
2017-10-28T10:02:14.842Z,999.22
2017-10-28T10:03:25.291Z,999.23
2017-10-28T10:04:35.731Z,999.22
2017-10-28T10:05:46.192Z,999.19
2017-10-28T10:06:56.258Z,999.14
2017-10-28T10:08:06.320Z,999.13
2017-10-28T10:09:16.715Z,999.09
2017-10-28T10:10:26.783Z,999.24
2017-10-28T10:11:37.207Z,999.15
2017-10-28T10:12:47.635Z,999.14
2017-10-28T10:13:58.045Z,999.18
2017-10-28T10:15:08.451Z,999.12
2017-10-28T10:16:18.888Z,999.04
2017-10-28T10:17:29.370Z,999.13
2017-10-28T10:18:39.800Z,999.1
2017-10-28T10:19:50.226Z,999.08
2017-10-28T10:21:00.322Z,998.98
2017-10-28T10:22:10.426Z,999
2017-10-28T10:23:20.885Z,998.98
2017-10-28T10:24:31.296Z,998.94
2017-10-28T10:25:41.722Z,998.93
2017-10-28T10:26:51.813Z,998.89
2017-10-28T10:28:02.234Z,998.9
2017-10-28T10:29:12.388Z,998.89
2017-10-28T10:30:22.798Z,998.9
2017-10-28T10:31:33.213Z,998.81
2017-10-28T10:32:43.603Z,998.81
2017-10-28T10:33:54.010Z,998.77
2017-10-28T10:35:04.162Z,998.81
2017-10-28T10:36:14.588Z,998.79
2017-10-28T10:37:24.676Z,998.84
2017-10-28T10:38:35.116Z,998.77
2017-10-28T10:39:45.218Z,998.71
2017-10-28T10:40:55.620Z,998.74
2017-10-28T10:42:05.729Z,998.75
2017-10-28T10:43:16.136Z,998.7
2017-10-28T10:44:26.569Z,998.67
2017-10-28T10:45:36.640Z,998.64
2017-10-28T10:46:46.747Z,998.61
2017-10-28T10:47:56.821Z,998.62
2017-10-28T10:49:07.206Z,998.61
2017-10-28T10:50:17.605Z,998.63
2017-10-28T10:51:28.066Z,998.61
2017-10-28T10:52:38.181Z,998.59
2017-10-28T10:53:48.818Z,998.58
2017-10-28T10:54:59.554Z,998.55
2017-10-28T10:56:09.982Z,998.49
2017-10-28T10:57:20.409Z,998.51
2017-10-28T10:58:30.875Z,998.49
2017-10-28T10:59:40.939Z,998.39
2017-10-28T11:00:51.358Z,998.41
2017-10-28T11:02:01.437Z,998.36
2017-10-28T11:03:11.845Z,998.38
2017-10-28T11:04:22.286Z,998.31
2017-10-28T11:05:32.694Z,998.31
2017-10-28T11:06:43.095Z,998.26
2017-10-28T11:07:53.519Z,998.33
2017-10-28T11:09:03.601Z,998.37
2017-10-28T11:10:14.068Z,998.25
2017-10-28T11:11:24.481Z,998.29
2017-10-28T11:12:34.240Z,998.33
2017-10-28T11:13:44.657Z,998.34
2017-10-28T11:14:55.059Z,998.24
2017-10-28T11:16:05.197Z,998.29
2017-10-28T11:17:15.269Z,998.23
2017-10-28T11:18:25.664Z,998.2
2017-10-28T11:19:35.759Z,998.18
2017-10-28T11:20:46.220Z,998.04
2017-10-28T11:21:56.298Z,998.05
2017-10-28T11:23:06.729Z,998
2017-10-28T11:24:17.148Z,998.07
2017-10-28T11:25:27.280Z,998.14
2017-10-28T11:26:37.712Z,998.07
2017-10-28T11:27:47.768Z,998.07
2017-10-28T11:28:58.181Z,998.01
2017-10-28T11:30:08.283Z,998.08
2017-10-28T11:31:18.694Z,998.03
2017-10-28T11:32:29.113Z,998.1
2017-10-28T11:33:39.569Z,998.05
2017-10-28T11:34:50.009Z,998.08
2017-10-28T11:36:00.454Z,998.04
2017-10-28T11:37:10.871Z,997.98
2017-10-28T11:38:20.637Z,997.96
2017-10-28T11:39:31.058Z,997.9
2017-10-28T11:40:40.795Z,997.96
2017-10-28T11:41:51.220Z,997.9
2017-10-28T11:43:01.694Z,997.93
2017-10-28T11:44:12.107Z,997.92
2017-10-28T11:45:22.570Z,997.85
2017-10-28T11:46:32.297Z,997.84
2017-10-28T11:47:42.053Z,997.75
2017-10-28T11:48:52.467Z,997.7
2017-10-28T11:50:02.549Z,997.55
2017-10-28T11:51:12.301Z,997.66
2017-10-28T11:52:22.398Z,997.58
2017-10-28T11:53:32.830Z,997.49
2017-10-28T11:54:42.569Z,997.47
2017-10-28T11:55:52.975Z,997.42
2017-10-28T11:57:03.439Z,997.36
2017-10-28T11:58:13.847Z,997.37
2017-10-28T11:59:24.287Z,997.31
2017-10-28T12:00:34.693Z,997.28
2017-10-28T12:01:44.766Z,997.27
2017-10-28T12:02:55.218Z,997.18
2017-10-28T12:04:05.655Z,997.22
2017-10-28T12:05:16.064Z,997.16
2017-10-28T12:06:26.463Z,997.12
2017-10-28T12:07:36.870Z,997.1
2017-10-28T12:08:46.931Z,997.19
2017-10-28T12:09:57.021Z,997.12
2017-10-28T12:11:07.094Z,997.16
2017-10-28T12:12:17.513Z,997.11
2017-10-28T12:13:27.264Z,997.1
2017-10-28T12:14:37.735Z,997.16
2017-10-28T12:15:48.152Z,997.2
2017-10-28T12:16:58.558Z,997.23
2017-10-28T12:18:08.975Z,997.14
2017-10-28T12:19:19.406Z,997.1
2017-10-28T12:20:29.495Z,997.15
2017-10-28T12:21:39.921Z,997.02
2017-10-28T12:22:50.029Z,997.06
2017-10-28T12:24:00.130Z,997.13
2017-10-28T12:25:10.539Z,997.03
2017-10-28T12:26:20.953Z,996.98
2017-10-28T12:27:31.019Z,997.05
2017-10-28T12:28:41.443Z,997.04
2017-10-28T12:29:51.845Z,997.04
2017-10-28T12:31:02.302Z,997.04
2017-10-28T12:32:12.748Z,997.13
2017-10-28T12:33:23.165Z,997.12
2017-10-28T12:34:33.599Z,997.07
2017-10-28T12:35:44.042Z,997.15
2017-10-28T12:36:54.460Z,997.14
2017-10-28T12:38:04.955Z,997.11
2017-10-28T12:39:15.406Z,997.11
2017-10-28T12:40:25.828Z,997.2
2017-10-28T12:41:36.240Z,997.08
2017-10-28T12:42:47.092Z,997.14
2017-10-28T12:43:57.562Z,997.23
2017-10-28T12:45:07.662Z,997.14
2017-10-28T12:46:18.078Z,997.15
2017-10-28T12:47:28.499Z,997.19
2017-10-28T12:48:38.600Z,997.14
2017-10-28T12:49:49.081Z,997.12
2017-10-28T12:50:59.499Z,997.21
2017-10-28T12:52:09.565Z,997.22
2017-10-28T12:53:20.003Z,997.1
2017-10-28T12:54:30.411Z,997.1
2017-10-28T12:55:40.897Z,997.25
2017-10-28T12:56:51.341Z,997.09
2017-10-28T12:58:01.766Z,997.21
2017-10-28T12:59:12.186Z,997.17
2017-10-28T13:00:22.593Z,997.12
2017-10-28T13:01:33.070Z,997.11
2017-10-28T13:02:43.482Z,997.09
2017-10-28T13:03:53.235Z,997.09
2017-10-28T13:05:03.670Z,996.95
2017-10-28T13:06:14.088Z,997.08
2017-10-28T13:07:24.490Z,997.04
2017-10-28T13:08:34.912Z,997.04
2017-10-28T13:09:45.043Z,997.09
2017-10-28T13:10:55.527Z,997.02
2017-10-28T13:12:05.942Z,996.98
2017-10-28T13:13:16.049Z,997.15
2017-10-28T13:14:26.461Z,996.96
2017-10-28T13:15:36.887Z,997.2
2017-10-28T13:16:46.978Z,997.17
2017-10-28T13:17:57.085Z,997
2017-10-28T13:19:07.545Z,997.05
2017-10-28T13:20:17.950Z,996.99
2017-10-28T13:21:28.370Z,997
2017-10-28T13:22:38.767Z,997.02
2017-10-28T13:23:49.190Z,997.01
2017-10-28T13:24:59.283Z,996.95
2017-10-28T13:26:09.710Z,996.98
2017-10-28T13:27:19.801Z,997.03
2017-10-28T13:28:30.252Z,996.89
2017-10-28T13:29:40.663Z,996.92
2017-10-28T13:30:51.130Z,996.87
2017-10-28T13:32:01.578Z,996.83
2017-10-28T13:33:11.682Z,996.84
2017-10-28T13:34:21.783Z,996.9
2017-10-28T13:35:31.897Z,996.87
2017-10-28T13:36:42.326Z,996.89
2017-10-28T13:37:52.724Z,996.81
2017-10-28T13:39:03.137Z,996.78
2017-10-28T13:40:13.246Z,996.76
2017-10-28T13:41:23.670Z,996.77
2017-10-28T13:42:33.767Z,996.73
2017-10-28T13:43:44.201Z,996.72
2017-10-28T13:44:54.289Z,996.76
2017-10-28T13:46:04.699Z,996.87
2017-10-28T13:47:15.147Z,996.66
2017-10-28T13:48:25.563Z,996.68
2017-10-28T13:49:35.679Z,996.62
2017-10-28T13:50:46.104Z,996.7
2017-10-28T13:51:56.522Z,996.61
2017-10-28T13:53:06.942Z,996.55
2017-10-28T13:54:17.091Z,996.61
2017-10-28T13:55:27.503Z,996.52
2017-10-28T13:56:37.904Z,996.53
2017-10-28T13:57:48.329Z,996.44
2017-10-28T13:58:58.418Z,996.45
2017-10-28T14:00:08.858Z,996.44
2017-10-28T14:01:18.960Z,996.32
2017-10-28T14:02:29.359Z,996.33
2017-10-28T14:03:39.759Z,996.31
2017-10-28T14:04:50.198Z,996.31
2017-10-28T14:06:00.683Z,996.25
2017-10-28T14:07:11.074Z,996.17
2017-10-28T14:08:21.166Z,996.21
2017-10-28T14:09:31.568Z,996.08
2017-10-28T14:10:41.983Z,996.07
2017-10-28T14:11:52.434Z,996.04
2017-10-28T14:13:03.050Z,996.03
2017-10-28T14:14:14.916Z,995.96
2017-10-28T14:15:25.353Z,996
2017-10-28T14:16:35.774Z,995.94
2017-10-28T14:17:45.581Z,995.89
2017-10-28T14:18:56.501Z,995.92
2017-10-28T14:20:07.908Z,995.99
2017-10-28T14:21:19.149Z,995.92
2017-10-28T14:22:33.991Z,995.93
2017-10-28T14:23:52.786Z,995.94
2017-10-28T14:25:04.546Z,995.81
2017-10-28T14:26:32.234Z,995.83
2017-10-28T14:27:47.487Z,995.87
2017-10-28T14:29:13.563Z,995.93
2017-10-28T14:30:26.386Z,995.85
2017-10-28T14:31:36.759Z,995.83
2017-10-28T14:32:51.658Z,995.82
2017-10-28T14:35:39.330Z,995.85
2017-10-28T14:36:52.098Z,995.81
2017-10-28T14:38:37.635Z,995.79
2017-10-28T14:39:53.645Z,995.8
2017-10-28T14:41:16.118Z,995.75
2017-10-28T14:42:46.846Z,995.82
2017-10-28T14:44:08.862Z,995.81
2017-10-28T14:48:32.720Z,995.78
2017-10-28T14:49:42.804Z,995.72
2017-10-28T14:50:53.212Z,995.75
2017-10-28T14:52:03.299Z,995.71
2017-10-28T14:53:13.731Z,995.75
2017-10-28T14:54:24.140Z,995.81
2017-10-28T14:55:34.544Z,995.73
2017-10-28T14:56:44.959Z,995.72
2017-10-28T14:57:55.047Z,995.83
2017-10-28T14:59:05.221Z,995.75
2017-10-28T15:00:15.655Z,995.65
2017-10-28T15:01:26.098Z,995.82